Time;durP1;ratioP1;P1;durP2;ratioP2;P2;SDS_P1;SDS_P2;PMS_P1;PMS_P2;Temp;Humidity;BMP_temperature;BMP_pressure;BME280_temperature;BME280_humidity;BME280_pressure;Samples;Min_cycle;Max_cycle;Signal;HPM_P1;HPM_P2
2023/03/31 00:01:47;;;;;;;6.83;2.57;;;11.10;1.00;;;;;;5095157;28;20521;-43
2023/03/31 00:04:12;;;;;;;3.80;1.97;;;11.10;1.00;;;;;;5093835;28;20410;-44
2023/03/31 00:06:43;;;;;;;8.20;2.63;;;11.00;1.00;;;;;;5095456;28;20191;-43
2023/03/31 00:09:11;;;;;;;6.87;2.70;;;11.10;1.00;;;;;;5095307;28;20204;-44
2023/03/31 00:11:40;;;;;;;7.13;2.60;;;11.20;1.00;;;;;;5093582;28;20849;-44
2023/03/31 00:14:07;;;;;;;7.50;2.60;;;11.20;1.00;;;;;;5095453;28;20417;-46
2023/03/31 00:16:34;;;;;;;4.00;2.57;;;11.20;1.00;;;;;;5092577;28;20419;-43
2023/03/31 00:19:00;;;;;;;3.47;2.30;;;11.10;1.00;;;;;;5092807;28;20905;-43
2023/03/31 00:21:32;;;;;;;9.60;3.10;;;11.00;1.00;;;;;;5094021;28;20704;-45
2023/03/31 00:24:09;;;;;;;6.13;2.97;;;11.00;1.00;;;;;;5094604;28;20405;-42
2023/03/31 00:26:35;;;;;;;4.13;2.13;;;11.00;1.00;;;;;;5096028;28;20523;-44
2023/03/31 00:29:03;;;;;;;7.93;2.90;;;11.00;7.60;;;;;;5095330;28;20462;-45
2023/03/31 00:31:29;;;;;;;7.67;2.90;;;10.90;91.50;;;;;;5095030;28;20512;-44
2023/03/31 00:33:55;;;;;;;10.70;2.50;;;10.90;99.90;;;;;;5094545;28;20678;-44
2023/03/31 00:36:26;;;;;;;5.60;2.40;;;11.00;95.10;;;;;;5095992;28;20689;-44
2023/03/31 00:38:53;;;;;;;7.00;2.83;;;11.00;99.90;;;;;;5094579;28;20414;-45
2023/03/31 00:41:18;;;;;;;5.00;2.20;;;11.00;99.90;;;;;;5094364;28;20434;-43
2023/03/31 00:44:24;;;;;;;5.73;2.83;;;11.10;17.40;;;;;;5091700;28;20848;-43
2023/03/31 00:47:14;;;;;;;6.20;2.80;;;11.10;1.00;;;;;;5009274;28;20191;-42
2023/03/31 00:49:46;;;;;;;6.60;2.43;;;11.00;14.00;;;;;;5090741;28;20897;-42
2023/03/31 00:52:20;;;;;;;6.60;3.37;;;11.10;1.00;;;;;;5093054;28;20438;-42
2023/03/31 00:54:50;;;;;;;8.20;3.87;;;11.10;1.00;;;;;;5093652;28;20443;-43
2023/03/31 00:57:16;;;;;;;6.90;3.23;;;11.10;1.00;;;;;;5094525;28;20402;-45
2023/03/31 00:59:46;;;;;;;6.53;2.53;;;11.10;1.00;;;;;;5094934;28;20499;-45
2023/03/31 01:02:13;;;;;;;6.00;2.80;;;11.10;1.00;;;;;;5095857;28;20177;-44
2023/03/31 01:05:17;;;;;;;4.57;2.97;;;11.10;1.00;;;;;;5094748;28;20433;-43
2023/03/31 01:07:45;;;;;;;3.30;2.83;;;11.00;20.50;;;;;;5095550;28;20421;-43
2023/03/31 01:10:11;;;;;;;5.87;3.10;;;11.00;46.40;;;;;;5095552;28;20422;-44
2023/03/31 01:12:42;;;;;;;6.77;2.83;;;11.00;42.20;;;;;;5093994;28;20422;-43
2023/03/31 01:15:09;;;;;;;7.30;3.47;;;10.90;75.70;;;;;;5094462;28;20665;-46
2023/03/31 01:17:35;;;;;;;5.03;2.50;;;10.90;1.00;;;;;;5095993;28;20762;-44
2023/03/31 01:20:38;;;;;;;8.50;3.13;;;11.00;1.00;;;;;;5095265;28;20796;-42
2023/03/31 01:23:28;;;;;;;5.73;2.90;;;11.00;1.00;;;;;;5095786;28;20867;-43
2023/03/31 01:26:31;;;;;;;3.60;2.40;;;11.00;1.00;;;;;;5094752;28;20407;-44
2023/03/31 01:29:03;;;;;;;8.40;3.03;;;11.00;1.00;;;;;;5096341;28;20465;-42
2023/03/31 01:32:07;;;;;;;5.30;2.50;;;11.10;1.00;;;;;;5099369;28;20492;-42
2023/03/31 01:35:00;;;;;;;9.33;2.90;;;11.10;1.00;;;;;;5099807;28;20406;-42
2023/03/31 01:37:44;;;;;;;5.20;2.73;;;11.10;1.00;;;;;;5099169;28;20469;-42
2023/03/31 01:40:20;;;;;;;8.23;2.97;;;11.00;25.90;;;;;;5098573;28;20420;-43
2023/03/31 01:43:13;;;;;;;6.77;2.60;;;11.00;99.90;;;;;;5097936;28;20692;-44
2023/03/31 01:45:51;;;;;;;7.47;3.03;;;10.90;1.00;;;;;;5097844;28;20448;-44
2023/03/31 01:48:20;;;;;;;7.00;3.07;;;10.90;99.90;;;;;;5098669;28;20505;-43
2023/03/31 01:50:57;;;;;;;7.20;2.77;;;10.90;99.90;;;;;;5098052;28;20740;-42
2023/03/31 01:54:01;;;;;;;7.57;3.17;;;10.80;1.00;;;;;;5098283;28;20532;-44
2023/03/31 01:56:45;;;;;;;6.00;2.77;;;10.60;99.90;;;;;;5095068;28;20434;-42
2023/03/31 01:59:13;;;;;;;7.87;3.13;;;10.60;99.90;;;;;;5097723;28;20414;-43
2023/03/31 02:01:47;;;;;;;9.77;3.03;;;10.50;1.00;;;;;;5097595;28;20521;-42
2023/03/31 02:04:17;;;;;;;6.40;3.23;;;10.50;1.00;;;;;;5098700;28;20507;-44
2023/03/31 02:06:51;;;;;;;5.40;3.00;;;10.50;61.60;;;;;;5097816;28;20434;-44
2023/03/31 02:09:21;;;;;;;6.30;3.03;;;10.50;99.90;;;;;;5098658;28;20453;-43
2023/03/31 02:11:47;;;;;;;6.00;2.80;;;10.40;99.90;;;;;;5097065;28;20434;-43
2023/03/31 02:14:17;;;;;;;7.80;2.63;;;10.40;1.00;;;;;;5097444;28;20502;-44
2023/03/31 02:16:46;;;;;;;5.20;2.80;;;10.40;1.00;;;;;;5096614;28;20426;-42
2023/03/31 02:19:13;;;;;;;7.37;2.93;;;10.30;99.90;;;;;;5096668;28;20472;-44
2023/03/31 02:21:39;;;;;;;4.17;2.40;;;10.20;1.00;;;;;;5096801;28;20439;-42
2023/03/31 02:24:09;;;;;;;4.33;2.93;;;10.20;1.00;;;;;;5097697;28;20820;-44
2023/03/31 02:26:44;;;;;;;5.80;3.17;;;10.20;1.00;;;;;;5097226;28;20568;-44
2023/03/31 02:29:10;;;;;;;5.77;3.30;;;10.20;1.00;;;;;;5096626;28;20457;-46
2023/03/31 02:32:00;;;;;;;7.77;3.70;;;10.20;1.00;;;;;;5098294;28;20434;-46
2023/03/31 02:34:26;;;;;;;6.90;2.87;;;10.20;1.00;;;;;;5098314;28;20168;-42
2023/03/31 02:36:52;;;;;;;8.93;3.27;;;10.20;74.80;;;;;;5096665;28;20418;-43
2023/03/31 02:39:24;;;;;;;6.67;3.40;;;10.10;45.30;;;;;;5097167;28;20219;-43
2023/03/31 02:41:50;;;;;;;6.70;3.43;;;10.10;99.90;;;;;;5097275;28;20172;-43
2023/03/31 02:44:16;;;;;;;6.00;3.10;;;10.00;99.90;;;;;;5097640;28;20410;-43
2023/03/31 02:46:42;;;;;;;6.83;3.00;;;10.00;99.90;;;;;;5096488;28;20223;-45
2023/03/31 02:49:10;;;;;;;7.53;3.20;;;9.90;1.00;;;;;;5097464;28;20474;-44
2023/03/31 02:52:05;;;;;;;7.63;3.40;;;10.00;99.90;;;;;;5097903;28;20466;-44
2023/03/31 02:54:49;;;;;;;6.30;3.40;;;10.00;99.90;;;;;;5097961;28;20917;-42
2023/03/31 02:57:39;;;;;;;6.07;2.73;;;10.00;99.90;;;;;;5096561;28;20691;-44
2023/03/31 03:00:17;;;;;;;6.10;3.27;;;10.00;99.90;;;;;;5093810;28;20547;-43
2023/03/31 03:03:13;;;;;;;5.40;3.40;;;10.00;1.00;;;;;;5094637;28;20823;-42
2023/03/31 03:06:01;;;;;;;5.53;2.90;;;9.90;1.00;;;;;;5095402;28;20522;-44
2023/03/31 03:08:54;;;;;;;8.07;3.57;;;9.80;1.00;;;;;;5095035;28;20485;-43
2023/03/31 03:11:51;;;;;;;5.37;3.43;;;9.80;1.00;;;;;;5094864;28;20410;-44
2023/03/31 03:14:33;;;;;;;6.20;3.33;;;9.80;1.00;;;;;;5095629;28;20700;-44
2023/03/31 03:17:17;;;;;;;5.47;2.93;;;9.70;1.00;;;;;;5095345;28;20692;-44
2023/03/31 03:19:42;;;;;;;6.23;3.20;;;9.70;37.70;;;;;;5096713;28;20425;-44
2023/03/31 03:22:08;;;;;;;7.30;3.60;;;9.60;53.20;;;;;;5097540;28;20426;-42
2023/03/31 03:24:34;;;;;;;6.90;3.20;;;9.60;99.90;;;;;;5095076;28;20550;-42
2023/03/31 03:27:00;;;;;;;9.03;3.90;;;9.60;99.90;;;;;;5097031;28;20581;-43
2023/03/31 03:29:26;;;;;;;5.57;3.53;;;9.60;99.90;;;;;;5094825;28;20302;-44
2023/03/31 03:31:52;;;;;;;6.23;3.20;;;9.50;99.90;;;;;;5093950;28;20438;-47
2023/03/31 03:34:19;;;;;;;4.63;3.60;;;9.50;99.90;;;;;;5094315;28;20505;-45
2023/03/31 03:36:45;;;;;;;5.47;3.53;;;9.50;99.90;;;;;;5094022;28;20792;-44
2023/03/31 03:39:11;;;;;;;3.90;2.90;;;9.50;99.90;;;;;;5094440;28;20419;-44
2023/03/31 03:41:36;;;;;;;7.83;4.47;;;9.50;1.00;;;;;;5095949;28;20685;-43
2023/03/31 03:44:02;;;;;;;5.43;3.87;;;9.50;1.00;;;;;;5096774;28;20189;-42
2023/03/31 03:46:28;;;;;;;5.93;3.30;;;9.50;1.00;;;;;;5094949;28;20278;-44
2023/03/31 03:48:54;;;;;;;7.30;4.00;;;9.50;1.00;;;;;;5096062;28;20208;-43
2023/03/31 03:51:20;;;;;;;6.60;4.00;;;9.50;1.00;;;;;;5095895;28;20173;-43
2023/03/31 03:53:46;;;;;;;8.50;4.50;;;9.50;1.00;;;;;;5096290;28;20417;-43
2023/03/31 03:56:11;;;;;;;6.40;4.07;;;9.50;1.00;;;;;;5096025;28;20425;-42
2023/03/31 03:58:37;;;;;;;9.63;4.27;;;9.40;1.00;;;;;;5095520;28;20256;-43
2023/03/31 04:01:03;;;;;;;6.03;4.00;;;9.40;1.00;;;;;;5087483;28;20197;-43
2023/03/31 04:03:29;;;;;;;8.00;4.77;;;9.30;1.00;;;;;;5073427;28;20563;-43
2023/03/31 04:05:55;;;;;;;11.80;5.53;;;9.20;1.00;;;;;;5073831;28;20176;-44
2023/03/31 04:08:21;;;;;;;7.87;4.40;;;9.20;1.00;;;;;;5074432;28;20486;-44
2023/03/31 04:10:48;;;;;;;7.70;4.50;;;9.20;1.00;;;;;;5073220;28;20173;-44
2023/03/31 04:13:17;;;;;;;8.73;4.60;;;9.20;4.30;;;;;;5074056;28;20204;-43
2023/03/31 04:15:43;;;;;;;7.47;4.40;;;9.10;42.00;;;;;;5073537;28;20654;-42
2023/03/31 04:18:09;;;;;;;10.00;4.90;;;9.10;68.30;;;;;;5070748;28;20500;-43
2023/03/31 04:20:36;;;;;;;5.93;4.37;;;9.00;99.90;;;;;;5072400;28;20177;-42
2023/03/31 04:23:04;;;;;;;6.27;4.00;;;9.00;99.90;;;;;;5072793;28;20995;-42
2023/03/31 04:25:30;;;;;;;12.57;5.07;;;9.00;99.90;;;;;;5071087;28;20433;-43
2023/03/31 04:27:56;;;;;;;10.33;5.07;;;9.00;99.90;;;;;;5070915;28;20475;-42
2023/03/31 04:30:23;;;;;;;11.73;4.53;;;9.00;99.90;;;;;;5071521;28;20415;-43
2023/03/31 04:32:54;;;;;;;7.47;4.60;;;9.00;99.90;;;;;;5070885;28;20525;-45
2023/03/31 04:35:21;;;;;;;7.30;4.33;;;8.90;99.90;;;;;;5071690;28;20839;-45
2023/03/31 04:37:47;;;;;;;9.10;4.30;;;9.00;99.90;;;;;;5071692;28;20805;-45
2023/03/31 04:40:13;;;;;;;6.70;5.03;;;8.90;99.90;;;;;;5071339;28;20501;-46
2023/03/31 04:42:39;;;;;;;10.73;4.57;;;8.90;99.90;;;;;;5070640;28;20580;-46
2023/03/31 04:45:05;;;;;;;6.80;4.40;;;9.00;99.90;;;;;;5071473;28;20192;-43
2023/03/31 04:47:30;;;;;;;9.13;4.70;;;9.10;99.90;;;;;;5068742;28;20183;-44
2023/03/31 04:49:56;;;;;;;11.33;5.33;;;9.10;99.90;;;;;;5070812;28;20550;-43
2023/03/31 04:52:22;;;;;;;10.80;4.90;;;9.10;99.90;;;;;;5086572;28;20229;-45
2023/03/31 04:54:47;;;;;;;8.60;4.67;;;9.20;83.10;;;;;;5069135;28;20204;-43
2023/03/31 04:57:13;;;;;;;11.73;5.43;;;9.20;45.70;;;;;;5071599;28;20189;-43
2023/03/31 04:59:39;;;;;;;7.50;5.27;;;9.30;16.70;;;;;;5068642;28;20180;-45
2023/03/31 05:02:04;;;;;;;9.00;5.07;;;9.30;7.00;;;;;;5070645;28;20476;-43
2023/03/31 05:04:30;;;;;;;7.87;5.50;;;9.40;1.00;;;;;;5073430;28;20180;-42
2023/03/31 05:06:55;;;;;;;7.53;5.87;;;9.50;1.00;;;;;;5071507;28;20267;-44
2023/03/31 05:09:21;;;;;;;7.87;5.20;;;9.50;1.00;;;;;;5071555;28;20216;-41
2023/03/31 05:11:47;;;;;;;9.60;5.30;;;9.60;1.00;;;;;;5068782;28;20177;-45
2023/03/31 05:14:12;;;;;;;10.60;6.30;;;9.60;1.00;;;;;;5070318;28;20822;-44
2023/03/31 05:16:38;;;;;;;7.40;5.10;;;9.60;5.70;;;;;;5068932;28;20188;-44
2023/03/31 05:19:03;;;;;;;7.27;5.47;;;9.60;1.00;;;;;;5068744;28;20189;-45
2023/03/31 05:21:30;;;;;;;10.63;6.20;;;9.60;12.30;;;;;;5067498;28;20534;-42
2023/03/31 05:23:56;;;;;;;7.87;5.70;;;9.50;99.90;;;;;;5068790;28;20177;-46
2023/03/31 05:26:24;;;;;;;9.63;6.07;;;9.50;99.90;;;;;;5068822;28;20423;-43
2023/03/31 05:28:53;;;;;;;10.13;5.87;;;9.60;99.90;;;;;;5069030;28;20466;-42
2023/03/31 05:31:19;;;;;;;9.43;6.23;;;9.50;99.90;;;;;;5067861;28;20747;-42
2023/03/31 05:33:45;;;;;;;10.63;8.33;;;9.50;99.90;;;;;;5069582;28;20674;-44
2023/03/31 05:36:14;;;;;;;7.30;6.40;;;9.40;99.90;;;;;;5069029;28;20487;-43
2023/03/31 05:38:40;;;;;;;10.57;6.33;;;9.40;99.90;;;;;;5069898;28;20446;-44
2023/03/31 05:41:08;;;;;;;9.93;6.60;;;9.40;99.90;;;;;;5069461;28;20422;-41
2023/03/31 05:43:34;;;;;;;11.87;6.53;;;9.40;99.90;;;;;;5069384;28;20427;-42
2023/03/31 05:46:00;;;;;;;11.00;6.67;;;9.30;99.90;;;;;;5071814;28;20454;-44
2023/03/31 05:48:25;;;;;;;10.27;5.83;;;9.30;99.90;;;;;;5068889;28;20540;-43
2023/03/31 05:50:54;;;;;;;8.80;6.80;;;9.30;99.90;;;;;;5067655;28;20518;-43
2023/03/31 05:53:20;;;;;;;7.20;6.03;;;9.30;99.90;;;;;;5067247;28;20274;-45
2023/03/31 05:55:45;;;;;;;10.33;6.97;;;9.30;99.90;;;;;;5069557;28;20474;-44
2023/03/31 05:58:11;;;;;;;8.90;6.30;;;9.30;99.90;;;;;;5072778;28;20645;-43
2023/03/31 06:00:37;;;;;;;9.50;6.87;;;9.30;99.90;;;;;;5081073;28;20361;-47
2023/03/31 06:03:02;;;;;;;9.83;6.50;;;9.30;1.00;;;;;;5093315;28;20165;-43
2023/03/31 06:05:31;;;;;;;12.80;6.53;;;9.30;1.00;;;;;;5091182;28;20202;-44
2023/03/31 06:07:57;;;;;;;9.77;7.10;;;9.30;1.00;;;;;;5093529;28;20172;-45
2023/03/31 06:10:22;;;;;;;13.10;7.57;;;9.30;1.00;;;;;;5094561;28;20425;-43
2023/03/31 06:12:48;;;;;;;14.70;6.97;;;9.30;1.00;;;;;;5095291;28;20183;-44
2023/03/31 06:15:13;;;;;;;11.23;6.40;;;9.30;1.00;;;;;;5094815;28;20454;-42
2023/03/31 06:17:39;;;;;;;8.70;6.50;;;9.40;1.00;;;;;;5095547;28;20173;-43
2023/03/31 06:20:05;;;;;;;10.43;6.70;;;9.40;1.00;;;;;;5093733;28;20179;-43
2023/03/31 06:22:31;;;;;;;11.17;6.53;;;9.50;99.90;;;;;;5093020;28;20288;-42
2023/03/31 06:24:57;;;;;;;8.60;6.90;;;9.50;99.90;;;;;;5093147;28;20499;-43
2023/03/31 06:27:22;;;;;;;12.30;6.90;;;9.40;99.90;;;;;;5091760;28;20552;-43
2023/03/31 06:29:49;;;;;;;10.03;7.27;;;9.40;1.00;;;;;;5092008;28;20215;-46
2023/03/31 06:32:14;;;;;;;12.80;6.87;;;9.40;1.00;;;;;;5090496;28;20447;-42
2023/03/31 06:34:40;;;;;;;12.73;7.30;;;9.40;1.00;;;;;;5094592;28;20438;-42
2023/03/31 06:37:06;;;;;;;13.37;7.87;;;9.30;1.00;;;;;;5092960;28;20188;-43
2023/03/31 06:39:31;;;;;;;11.10;7.83;;;9.30;1.00;;;;;;5092947;28;20515;-42
2023/03/31 06:41:57;;;;;;;9.60;6.63;;;9.30;1.00;;;;;;5093478;28;20186;-44
2023/03/31 06:44:23;;;;;;;12.93;7.43;;;9.30;1.00;;;;;;5093105;28;20263;-42
2023/03/31 06:46:49;;;;;;;8.77;7.27;;;9.20;1.00;;;;;;5092592;28;20172;-44
2023/03/31 06:49:15;;;;;;;10.30;6.97;;;9.20;1.00;;;;;;5093233;28;20702;-46
2023/03/31 06:51:40;;;;;;;8.17;7.20;;;9.20;1.00;;;;;;5089162;28;20430;-48
2023/03/31 06:54:06;;;;;;;10.10;7.50;;;9.10;1.00;;;;;;5091876;28;20302;-43
2023/03/31 06:56:32;;;;;;;12.50;7.97;;;9.10;1.00;;;;;;5092849;28;20238;-46
2023/03/31 06:58:57;;;;;;;13.93;8.50;;;9.10;1.00;;;;;;5091568;28;20176;-42
2023/03/31 07:01:23;;;;;;;15.83;7.57;;;9.10;1.00;;;;;;5089626;28;20203;-43
2023/03/31 07:03:48;;;;;;;11.27;7.10;;;9.20;1.00;;;;;;5091997;28;20511;-44
2023/03/31 07:06:14;;;;;;;9.53;6.20;;;9.20;1.00;;;;;;5091173;28;20287;-43
2023/03/31 07:08:39;;;;;;;8.83;6.63;;;9.20;1.00;;;;;;5091930;28;20208;-44
2023/03/31 07:11:05;;;;;;;6.23;5.20;;;9.20;1.00;;;;;;5090727;28;20288;-45
2023/03/31 07:13:31;;;;;;;7.53;5.30;;;9.20;1.00;;;;;;5090308;28;20250;-43
2023/03/31 07:15:56;;;;;;;7.90;5.23;;;9.30;1.00;;;;;;5089726;28;20378;-44
2023/03/31 07:18:24;;;;;;;5.50;3.97;;;9.30;1.00;;;;;;5089985;28;20277;-43
2023/03/31 07:20:50;;;;;;;8.23;3.80;;;9.40;99.90;;;;;;5092129;28;20180;-44
2023/03/31 07:23:16;;;;;;;6.50;3.47;;;9.40;99.90;;;;;;5092856;28;20844;-44
2023/03/31 07:25:42;;;;;;;4.53;3.00;;;9.40;99.90;;;;;;5093919;28;20575;-46
2023/03/31 07:28:08;;;;;;;3.90;3.10;;;9.50;99.90;;;;;;5088778;28;20482;-44
2023/03/31 07:30:33;;;;;;;3.50;2.67;;;9.50;1.00;;;;;;5087438;28;20609;-42
2023/03/31 07:33:00;;;;;;;3.13;2.13;;;9.60;1.00;;;;;;5090811;28;20184;-44
2023/03/31 07:35:26;;;;;;;4.03;1.97;;;9.70;99.90;;;;;;5092667;28;20462;-46
2023/03/31 07:37:51;;;;;;;3.00;1.60;;;9.80;99.90;;;;;;5089881;28;20422;-45
2023/03/31 07:40:23;;;;;;;2.17;1.70;;;10.30;1.00;;;;;;5090400;28;20167;-43
2023/03/31 07:42:51;;;;;;;2.27;1.80;;;10.70;1.00;;;;;;5090287;28;20451;-46
2023/03/31 07:45:18;;;;;;;2.20;1.33;;;11.00;1.00;;;;;;5091669;28;20410;-46
2023/03/31 07:47:45;;;;;;;2.87;1.20;;;10.90;1.00;;;;;;5092732;28;20775;-47
2023/03/31 07:50:12;;;;;;;2.37;1.20;;;11.50;1.00;;;;;;5092286;28;20422;-44
2023/03/31 07:52:38;;;;;;;1.80;1.20;;;11.80;1.00;;;;;;5093348;28;20485;-44
2023/03/31 07:55:04;;;;;;;3.13;1.50;;;11.60;1.00;;;;;;5092656;28;20399;-44
2023/03/31 07:57:30;;;;;;;1.67;1.10;;;11.70;1.00;;;;;;5089308;28;20438;-43
2023/03/31 07:59:56;;;;;;;2.60;1.00;;;11.90;1.00;;;;;;5087671;28;20427;-44
2023/03/31 08:02:21;;;;;;;2.30;1.20;;;11.90;99.90;;;;;;5089749;28;20259;-45
2023/03/31 08:04:47;;;;;;;1.90;1.27;;;12.40;1.00;;;;;;5092127;28;20175;-43
2023/03/31 08:07:14;;;;;;;1.57;1.30;;;13.30;99.90;;;;;;5091476;28;20212;-44
2023/03/31 08:09:41;;;;;;;1.40;0.80;;;13.90;99.90;;;;;;5091919;28;20208;-43
2023/03/31 08:12:07;;;;;;;1.40;1.07;;;14.20;99.90;;;;;;5092305;28;20819;-44
2023/03/31 08:14:33;;;;;;;3.10;1.00;;;14.70;1.00;;;;;;5091084;28;20411;-48
2023/03/31 08:16:59;;;;;;;2.30;1.30;;;15.20;1.00;;;;;;5092144;28;20168;-43
2023/03/31 08:19:25;;;;;;;1.30;1.17;;;15.70;99.90;;;;;;5090552;28;20183;-44
2023/03/31 08:21:51;;;;;;;1.87;1.27;;;16.20;99.90;;;;;;5091405;28;20492;-45
2023/03/31 08:24:17;;;;;;;2.17;1.27;;;16.00;99.90;;;;;;5091902;28;20697;-44
2023/03/31 08:26:42;;;;;;;2.27;1.50;;;16.10;32.20;;;;;;5090174;28;20216;-44
2023/03/31 08:29:08;;;;;;;1.63;1.00;;;16.60;69.60;;;;;;5093112;28;20564;-43
2023/03/31 08:31:34;;;;;;;3.37;1.43;;;16.90;1.00;;;;;;5091524;28;20259;-45
2023/03/31 08:34:01;;;;;;;2.50;0.97;;;16.70;1.00;;;;;;5090465;28;20176;-45
2023/03/31 08:36:27;;;;;;;2.50;1.50;;;16.70;1.00;;;;;;5090793;28;20180;-44
2023/03/31 08:38:53;;;;;;;2.27;1.30;;;16.70;1.00;;;;;;5092676;28;20418;-43
2023/03/31 08:41:48;;;;;;;2.80;1.27;;;17.40;1.00;;;;;;5093069;28;20168;-44
2023/03/31 08:44:19;;;;;;;1.90;1.20;;;18.40;1.00;;;;;;5090525;28;20423;-45
2023/03/31 08:46:45;;;;;;;3.60;1.33;;;19.00;1.00;;;;;;5088739;28;20509;-44
2023/03/31 08:49:15;;;;;;;3.93;1.40;;;18.20;1.00;;;;;;5088036;28;20523;-44
2023/03/31 08:51:46;;;;;;;2.27;1.53;;;17.30;1.00;;;;;;5089765;28;20422;-45
2023/03/31 08:54:29;;;;;;;1.70;1.40;;;16.30;1.00;;;;;;5090532;28;20410;-45
2023/03/31 08:56:55;;;;;;;3.70;1.53;;;16.30;1.00;;;;;;5093274;28;20512;-44
2023/03/31 08:59:29;;;;;;;3.37;1.57;;;16.50;1.00;;;;;;5092860;28;20637;-44
2023/03/31 09:02:20;;;;;;;3.27;1.60;;;16.60;1.00;;;;;;5092955;28;20493;-44
2023/03/31 09:04:46;;;;;;;3.80;1.53;;;15.70;1.00;;;;;;5091206;28;20415;-44
2023/03/31 09:07:25;;;;;;;3.70;1.40;;;15.20;1.00;;;;;;5092770;28;20563;-43
2023/03/31 09:10:10;;;;;;;3.37;1.63;;;15.00;1.00;;;;;;5093068;28;20890;-44
2023/03/31 09:12:35;;;;;;;3.00;1.30;;;15.10;1.00;;;;;;5092411;28;20426;-43
2023/03/31 09:15:06;;;;;;;2.17;1.37;;;15.10;1.00;;;;;;5092872;28;20895;-44
2023/03/31 09:17:43;;;;;;;3.03;1.00;;;15.00;1.00;;;;;;5091882;28;20164;-44
2023/03/31 09:20:14;;;;;;;5.80;1.53;;;14.80;1.00;;;;;;5091845;28;20453;-42
2023/03/31 09:22:50;;;;;;;1.60;1.10;;;14.80;1.00;;;;;;5092135;28;20422;-44
2023/03/31 09:25:24;;;;;;;2.70;1.07;;;14.90;1.00;;;;;;5092393;28;20495;-44
2023/03/31 09:27:52;;;;;;;1.73;0.97;;;15.20;1.00;;;;;;5091639;28;20538;-49
2023/03/31 09:30:32;;;;;;;3.63;1.13;;;14.80;1.00;;;;;;5090390;28;20449;-43
2023/03/31 09:33:30;;;;;;;2.37;0.93;;;14.50;1.00;;;;;;5090022;28;20429;-44
2023/03/31 09:36:00;;;;;;;3.77;1.90;;;13.90;1.00;;;;;;5092314;28;20411;-43
2023/03/31 09:38:28;;;;;;;2.67;1.63;;;13.40;4.20;;;;;;5091752;28;20430;-43
2023/03/31 09:40:55;;;;;;;2.77;1.27;;;13.30;33.30;;;;;;5090520;28;20509;-44
2023/03/31 09:43:23;;;;;;;4.87;1.33;;;13.30;12.90;;;;;;5089952;28;20416;-43
2023/03/31 09:45:49;;;;;;;2.40;1.47;;;13.30;28.70;;;;;;5090773;28;20406;-44
2023/03/31 09:48:22;;;;;;;5.03;1.50;;;13.50;93.20;;;;;;5090260;28;20919;-46
2023/03/31 09:50:59;;;;;;;5.80;1.70;;;13.60;9.90;;;;;;5091136;28;20419;-45
2023/03/31 09:53:34;;;;;;;4.20;1.70;;;13.90;1.00;;;;;;5092980;28;20422;-43
2023/03/31 09:56:05;;;;;;;7.07;1.20;;;13.70;1.00;;;;;;5094939;28;20440;-43
2023/03/31 09:58:30;;;;;;;5.90;1.80;;;13.70;1.00;;;;;;5094353;28;20426;-44
2023/03/31 10:01:02;;;;;;;6.00;1.67;;;14.30;1.00;;;;;;5091488;28;20469;-44
2023/03/31 10:03:29;;;;;;;4.87;1.40;;;14.70;1.00;;;;;;5091295;28;20218;-45
2023/03/31 10:05:57;;;;;;;3.13;1.40;;;14.90;1.00;;;;;;5092525;28;20445;-46
2023/03/31 10:08:30;;;;;;;6.10;2.73;;;14.80;1.00;;;;;;5090422;28;20494;-46
2023/03/31 10:11:02;;;;;;;3.57;1.80;;;14.70;1.00;;;;;;5089115;28;20415;-44
2023/03/31 10:13:39;;;;;;;5.10;2.00;;;14.80;1.00;;;;;;5090011;28;20509;-43
2023/03/31 10:16:09;;;;;;;3.47;1.60;;;15.00;1.00;;;;;;5091037;28;20424;-45
2023/03/31 10:18:37;;;;;;;2.30;1.40;;;16.20;1.00;;;;;;5092949;28;20487;-43
2023/03/31 10:21:24;;;;;;;3.83;1.80;;;17.30;1.00;;;;;;5092757;28;20836;-47
2023/03/31 10:23:50;;;;;;;5.20;2.00;;;16.90;1.00;;;;;;5091856;28;20533;-43
2023/03/31 10:26:21;;;;;;;4.80;1.53;;;17.40;1.00;;;;;;5093484;28;20415;-43
2023/03/31 10:28:49;;;;;;;3.10;1.53;;;16.90;1.00;;;;;;5074463;28;20470;-44
2023/03/31 10:31:15;;;;;;;5.33;1.83;;;16.50;1.00;;;;;;5091258;28;20411;-45
2023/03/31 10:33:44;;;;;;;3.87;1.80;;;16.40;1.00;;;;;;5090299;28;20414;-45
2023/03/31 10:36:23;;;;;;;4.07;1.90;;;17.00;1.00;;;;;;5089976;28;20172;-46
2023/03/31 10:38:50;;;;;;;5.20;1.67;;;17.40;1.00;;;;;;5090270;28;20414;-43
2023/03/31 10:41:21;;;;;;;4.77;1.97;;;17.30;1.00;;;;;;5094159;28;20715;-44
2023/03/31 10:43:57;;;;;;;3.50;1.60;;;17.50;1.00;;;;;;5093330;28;20854;-44
2023/03/31 10:46:41;;;;;;;4.83;1.57;;;17.60;1.00;;;;;;5091062;28;20411;-46
2023/03/31 10:49:24;;;;;;;5.10;1.97;;;17.20;1.00;;;;;;5091036;28;20454;-44
2023/03/31 10:51:57;;;;;;;4.20;1.50;;;17.40;1.00;;;;;;5092206;28;20862;-43
2023/03/31 10:54:25;;;;;;;4.60;2.20;;;17.10;1.00;;;;;;5093242;28;20422;-44
2023/03/31 10:56:56;;;;;;;8.00;2.20;;;16.50;1.00;;;;;;5093473;28;20438;-44
2023/03/31 10:59:47;;;;;;;5.10;2.60;;;16.90;1.00;;;;;;5092826;28;21023;-44
2023/03/31 11:02:32;;;;;;;6.20;1.97;;;16.50;1.00;;;;;;5089534;28;20902;-45
2023/03/31 11:04:58;;;;;;;5.67;1.70;;;16.20;1.00;;;;;;5087809;28;20426;-44
2023/03/31 11:07:53;;;;;;;7.03;2.00;;;15.50;1.00;;;;;;5088694;28;20419;-46
2023/03/31 11:10:38;;;;;;;5.67;1.90;;;15.20;1.00;;;;;;5090658;28;20188;-43
2023/03/31 11:13:32;;;;;;;4.53;2.20;;;14.60;1.00;;;;;;5088945;28;20420;-45
2023/03/31 11:16:17;;;;;;;4.73;1.00;;;13.90;1.00;;;;;;5090299;28;20426;-43
2023/03/31 11:18:58;;;;;;;3.00;0.90;;;13.00;1.00;;;;;;5091507;28;20421;-44
2023/03/31 11:21:55;;;;;;;2.03;0.80;;;11.10;99.90;;;;;;5090912;28;20406;-42
2023/03/31 11:24:42;;;;;;;3.33;0.80;;;9.70;1.00;;;;;;5090304;28;20736;-44
2023/03/31 11:27:34;;;;;;;1.43;0.57;;;9.10;1.00;;;;;;5089899;28;20472;-43
2023/03/31 11:30:12;;;;;;;2.13;0.60;;;8.80;17.80;;;;;;5092511;28;20721;-44
2023/03/31 11:32:47;;;;;;;4.90;2.50;;;8.70;1.00;;;;;;5086142;28;20418;-43
2023/03/31 11:35:31;;;;;;;2.60;0.70;;;8.60;99.90;;;;;;5088408;28;20437;-43
2023/03/31 11:38:25;;;;;;;2.93;1.17;;;8.60;99.90;;;;;;5088870;28;20805;-42
2023/03/31 11:41:02;;;;;;;3.97;0.90;;;8.70;1.00;;;;;;5087352;28;20521;-44
2023/03/31 11:43:43;;;;;;;0.90;0.50;;;8.60;1.00;;;;;;5089809;28;20826;-42
2023/03/31 11:46:32;;;;;;;1.50;0.90;;;8.70;99.90;;;;;;5089741;28;20457;-42
2023/03/31 11:49:14;;;;;;;1.90;0.90;;;9.10;99.90;;;;;;5092775;28;20493;-44
2023/03/31 11:51:48;;;;;;;2.40;1.43;;;9.50;99.90;;;;;;5088392;28;20953;-44
2023/03/31 11:54:35;;;;;;;2.03;0.63;;;10.00;99.90;;;;;;5089972;28;20417;-45
2023/03/31 11:57:06;;;;;;;1.63;0.50;;;11.30;1.00;;;;;;5087904;28;20812;-43
2023/03/31 11:59:31;;;;;;;1.37;0.50;;;12.80;1.00;;;;;;5088799;28;20801;-45
2023/03/31 12:02:14;;;;;;;1.77;0.87;;;14.00;1.00;;;;;;5089877;28;20429;-44
2023/03/31 12:04:43;;;;;;;2.33;0.97;;;15.30;99.90;;;;;;5087916;28;20406;-45
2023/03/31 12:07:27;;;;;;;2.47;0.90;;;16.40;32.70;;;;;;5091481;28;20453;-43
2023/03/31 12:10:21;;;;;;;2.40;0.73;;;15.70;1.00;;;;;;5090757;28;20561;-45
2023/03/31 12:13:23;;;;;;;1.73;0.87;;;14.80;1.00;;;;;;5088485;28;20790;-44
2023/03/31 12:16:14;;;;;;;1.20;0.50;;;14.20;1.00;;;;;;5089070;28;20402;-45
2023/03/31 12:18:51;;;;;;;1.80;0.50;;;14.70;29.80;;;;;;5088685;28;20445;-42
2023/03/31 12:21:18;;;;;;;1.77;0.50;;;16.30;1.00;;;;;;5088763;28;20880;-43
2023/03/31 12:23:45;;;;;;;1.00;0.50;;;16.90;1.00;;;;;;5086256;28;20597;-44
2023/03/31 12:26:42;;;;;;;2.20;0.40;;;17.40;1.00;;;;;;5068986;28;20518;-45
2023/03/31 12:29:26;;;;;;;2.27;1.20;;;17.30;1.00;;;;;;5069117;28;20463;-43
2023/03/31 12:31:54;;;;;;;2.77;0.90;;;18.30;1.00;;;;;;5066191;28;20863;-44
2023/03/31 12:34:23;;;;;;;2.60;1.00;;;18.90;1.00;;;;;;5052076;28;20535;-44
2023/03/31 12:37:09;;;;;;;3.13;0.77;;;19.00;1.00;;;;;;5070004;28;20508;-44
2023/03/31 12:40:09;;;;;;;1.07;0.60;;;18.30;1.00;;;;;;5071452;28;20422;-45
2023/03/31 12:42:41;;;;;;;1.77;0.53;;;18.50;1.00;;;;;;5072045;28;20438;-44
2023/03/31 12:45:25;;;;;;;1.87;0.67;;;19.30;1.00;;;;;;5067770;28;20511;-44
2023/03/31 12:47:57;;;;;;;1.80;0.73;;;18.90;1.00;;;;;;5084319;28;20446;-44
2023/03/31 12:50:52;;;;;;;2.17;0.97;;;18.90;1.00;;;;;;5091331;28;20415;-44
2023/03/31 12:53:24;;;;;;;2.17;1.00;;;18.70;1.00;;;;;;5090730;28;20515;-44
2023/03/31 12:55:56;;;;;;;1.87;0.93;;;19.50;1.00;;;;;;5073307;28;20411;-45
2023/03/31 12:58:32;;;;;;;2.10;0.90;;;19.60;1.00;;;;;;5089056;28;20480;-44
2023/03/31 13:01:10;;;;;;;1.80;0.83;;;19.60;1.00;;;;;;5091687;28;20407;-46
2023/03/31 13:04:02;;;;;;;1.80;0.80;;;18.50;1.00;;;;;;5091299;28;20445;-44
2023/03/31 13:06:31;;;;;;;3.57;1.40;;;17.50;1.00;;;;;;5091677;28;20475;-46
2023/03/31 13:08:56;;;;;;;3.43;1.50;;;16.50;1.00;;;;;;5089668;28;20454;-44
2023/03/31 13:11:22;;;;;;;4.10;1.27;;;15.80;1.00;;;;;;5091268;28;20972;-47
2023/03/31 13:14:01;;;;;;;6.53;1.30;;;14.60;1.00;;;;;;5091994;28;20168;-45
2023/03/31 13:16:28;;;;;;;2.97;1.20;;;14.00;1.00;;;;;;5091545;28;20178;-44
2023/03/31 13:18:58;;;;;;;4.60;1.73;;;13.40;1.00;;;;;;5090439;28;20418;-46
2023/03/31 13:21:24;;;;;;;5.33;2.20;;;13.10;1.00;;;;;;5083154;28;20762;-44